Time;durP1;ratioP1;P1;durP2;ratioP2;P2;SDS_P1;SDS_P2;PMS_P1;PMS_P2;Temp;Humidity;BMP_temperature;BMP_pressure;BME280_temperature;BME280_humidity;BME280_pressure;Samples;Min_cycle;Max_cycle;Signal;HPM_P1;HPM_P2
2022/06/14 00:01:26;;;;;;;0.10;0.10;;;19.90;62.80;;;;;;5033082;28;20028;-83
2022/06/14 00:03:52;;;;;;;0.00;0.00;;;19.90;63.30;;;;;;5033831;28;20047;-82
2022/06/14 00:06:21;;;;;;;1.30;0.87;;;19.80;62.60;;;;;;5018335;28;20075;-83
2022/06/14 00:08:48;;;;;;;0.20;0.20;;;19.80;62.70;;;;;;5031131;28;20033;-83
2022/06/14 00:11:17;;;;;;;0.10;0.10;;;19.80;62.40;;;;;;5016675;28;20037;-84
2022/06/14 00:13:44;;;;;;;0.20;0.20;;;19.80;62.10;;;;;;5034552;28;20028;-85
2022/06/14 00:16:10;;;;;;;0.13;0.13;;;19.70;62.20;;;;;;5034278;28;20459;-85
2022/06/14 00:18:36;;;;;;;0.32;0.32;;;19.60;62.60;;;;;;5016482;28;20032;-84
2022/06/14 00:21:02;;;;;;;0.30;0.20;;;19.60;62.20;;;;;;5035038;28;20045;-83
2022/06/14 00:23:28;;;;;;;0.10;0.00;;;19.50;63.30;;;;;;5033430;28;20098;-83
2022/06/14 00:25:56;;;;;;;0.00;0.00;;;19.50;63.60;;;;;;5034851;28;20036;-85
2022/06/14 00:28:23;;;;;;;0.28;0.22;;;19.40;63.50;;;;;;5033745;28;20021;-84
2022/06/14 00:30:53;;;;;;;0.63;0.63;;;19.40;63.00;;;;;;5015782;28;20033;-85
2022/06/14 00:33:19;;;;;;;0.00;0.00;;;19.40;63.00;;;;;;5034067;28;20100;-86
2022/06/14 00:35:45;;;;;;;0.30;0.30;;;19.40;62.90;;;;;;5035154;28;20116;-86
2022/06/14 00:38:12;;;;;;;0.00;0.00;;;19.30;62.90;;;;;;5015765;28;20055;-85
2022/06/14 00:40:38;;;;;;;0.13;0.13;;;19.20;63.30;;;;;;5033702;28;20032;-87
2022/06/14 00:43:13;;;;;;;0.30;0.30;;;19.20;63.20;;;;;;5034537;28;20048;-86
2022/06/14 00:45:39;;;;;;;0.10;0.10;;;19.20;63.30;;;;;;5034402;28;20112;-86
2022/06/14 00:48:12;;;;;;;0.10;0.10;;;19.10;63.60;;;;;;5012264;28;20045;-82
2022/06/14 00:50:53;;;;;;;0.10;0.10;;;19.10;63.70;;;;;;5033278;28;20052;-82
2022/06/14 00:53:22;;;;;;;0.05;0.05;;;19.10;63.20;;;;;;5032510;28;20029;-82
2022/06/14 00:55:55;;;;;;;0.63;0.35;;;18.90;64.60;;;;;;5033783;28;20583;-82
2022/06/14 00:58:27;;;;;;;0.05;0.05;;;19.00;64.10;;;;;;5032695;28;20041;-81
2022/06/14 01:01:15;;;;;;;4.80;1.02;;;18.90;64.00;;;;;;5031829;28;20512;-81
2022/06/14 01:03:53;;;;;;;0.15;0.15;;;18.90;64.10;;;;;;5036248;28;20025;-81
2022/06/14 01:06:25;;;;;;;0.30;0.30;;;18.90;64.20;;;;;;5038658;28;20048;-81
2022/06/14 01:08:56;;;;;;;0.32;0.32;;;18.90;64.10;;;;;;5035124;28;20405;-80
2022/06/14 01:11:38;;;;;;;0.75;0.75;;;18.90;64.20;;;;;;5027656;28;20040;-81
2022/06/14 01:14:06;;;;;;;0.10;0.10;;;18.90;64.10;;;;;;5034777;28;20040;-81
2022/06/14 01:16:34;;;;;;;0.28;0.28;;;18.80;64.30;;;;;;5037555;28;20029;-82
2022/06/14 01:19:00;;;;;;;0.08;0.08;;;18.70;64.70;;;;;;5037856;28;20032;-81
2022/06/14 01:21:28;;;;;;;0.00;0.00;;;18.70;64.40;;;;;;5036236;28;20110;-82
2022/06/14 01:23:54;;;;;;;0.10;0.10;;;18.70;64.80;;;;;;5035199;28;20032;-81
2022/06/14 01:26:22;;;;;;;0.00;0.00;;;18.70;65.10;;;;;;5034952;28;20021;-81
2022/06/14 01:28:56;;;;;;;0.05;0.05;;;18.80;64.60;;;;;;5034370;28;20041;-82
2022/06/14 01:31:24;;;;;;;0.15;0.15;;;18.60;65.20;;;;;;5032144;28;20033;-82
2022/06/14 01:33:55;;;;;;;0.40;0.40;;;18.60;64.90;;;;;;5030656;28;21914;-81
2022/06/14 01:36:34;;;;;;;0.70;0.20;;;18.60;65.40;;;;;;5036008;28;20032;-81
2022/06/14 01:39:03;;;;;;;0.10;0.10;;;18.50;65.40;;;;;;5037075;28;20082;-80
2022/06/14 01:42:04;;;;;;;0.88;0.45;;;18.40;66.00;;;;;;5032497;28;20485;-81
2022/06/14 01:44:45;;;;;;;0.00;0.00;;;18.50;65.40;;;;;;4976765;28;20057;-82
2022/06/14 01:47:17;;;;;;;0.32;0.32;;;18.40;66.00;;;;;;4980239;28;20030;-82
2022/06/14 01:53:14;;;;;;;0.00;0.00;;;18.30;66.30;;;;;;4975211;28;20097;-82
2022/06/14 01:55:49;;;;;;;0.08;0.08;;;18.20;66.60;;;;;;4975091;28;20046;-83
2022/06/14 01:58:17;;;;;;;0.30;0.30;;;18.30;66.20;;;;;;4975364;28;20583;-84
2022/06/14 02:00:53;;;;;;;0.30;0.30;;;18.20;66.30;;;;;;4976582;28;20049;-84
2022/06/14 02:06:23;;;;;;;0.17;0.17;;;18.10;66.70;;;;;;4977224;28;20126;-84
2022/06/14 02:09:02;;;;;;;0.32;0.20;;;18.00;67.00;;;;;;4975185;28;20098;-84
2022/06/14 02:11:32;;;;;;;0.00;0.00;;;18.10;67.10;;;;;;4976240;28;20057;-84
2022/06/14 02:14:04;;;;;;;0.73;0.30;;;18.00;66.90;;;;;;4973648;28;20049;-83
2022/06/14 02:16:35;;;;;;;0.38;0.38;;;18.10;67.20;;;;;;4977342;28;20062;-83
2022/06/14 02:19:09;;;;;;;0.20;0.20;;;18.00;67.40;;;;;;4974251;28;20072;-82
2022/06/14 02:21:48;;;;;;;0.10;0.10;;;17.90;67.60;;;;;;5020777;28;20048;-82
2022/06/14 02:24:25;;;;;;;0.30;0.30;;;17.90;67.60;;;;;;5034746;28;20041;-80
2022/06/14 02:27:06;;;;;;;0.08;0.08;;;17.90;68.00;;;;;;5033098;28;20561;-83
2022/06/14 02:29:44;;;;;;;0.10;0.10;;;17.80;68.30;;;;;;5031852;28;20048;-84
2022/06/14 02:32:52;;;;;;;0.00;0.00;;;17.80;68.30;;;;;;5029028;28;20029;-83
2022/06/14 02:35:32;;;;;;;0.43;0.20;;;17.80;68.20;;;;;;4909788;29;20035;-83
2022/06/14 02:38:12;;;;;;;0.10;0.10;;;17.70;68.80;;;;;;4911267;29;20087;-81
2022/06/14 02:41:02;;;;;;;0.50;0.50;;;17.60;68.80;;;;;;4909177;29;21023;-80
2022/06/14 02:43:34;;;;;;;0.20;0.20;;;17.60;68.80;;;;;;4916667;29;20048;-80
2022/06/14 02:46:06;;;;;;;0.10;0.10;;;17.60;68.80;;;;;;4914883;29;20071;-79
2022/06/14 02:48:52;;;;;;;0.10;0.10;;;17.70;68.10;;;;;;4917057;29;20039;-80
2022/06/14 02:51:34;;;;;;;0.10;0.10;;;17.60;68.20;;;;;;4914972;29;20039;-81
2022/06/14 02:54:06;;;;;;;0.15;0.15;;;17.50;68.50;;;;;;4916254;29;20039;-81
2022/06/14 02:56:46;;;;;;;0.13;0.13;;;17.50;68.00;;;;;;4915958;29;20118;-81
2022/06/14 02:59:21;;;;;;;0.00;0.00;;;17.50;68.10;;;;;;4914354;29;20157;-81
2022/06/14 03:01:59;;;;;;;0.10;0.10;;;17.40;68.20;;;;;;4911978;29;20032;-81
2022/06/14 03:04:44;;;;;;;0.20;0.20;;;17.30;68.20;;;;;;4896832;29;20562;-82
2022/06/14 03:07:46;;;;;;;0.10;0.10;;;17.30;68.70;;;;;;5030860;28;20044;-82
2022/06/14 03:10:12;;;;;;;0.32;0.32;;;17.30;68.20;;;;;;4936425;28;20087;-81
2022/06/14 03:12:55;;;;;;;0.10;0.10;;;17.20;68.80;;;;;;4937369;28;20047;-82
2022/06/14 03:15:33;;;;;;;0.10;0.10;;;17.20;69.20;;;;;;4936032;28;20131;-81
2022/06/14 03:18:04;;;;;;;3.05;0.63;;;17.20;69.10;;;;;;4931825;28;20051;-81
2022/06/14 03:21:19;;;;;;;0.20;0.13;;;17.00;70.10;;;;;;4931996;28;20126;-81
2022/06/14 03:24:00;;;;;;;0.20;0.20;;;17.00;70.20;;;;;;4930945;28;20784;-81
2022/06/14 03:26:51;;;;;;;0.10;0.10;;;17.00;70.00;;;;;;4929701;28;20130;-82
2022/06/14 03:29:28;;;;;;;0.30;0.30;;;16.90;70.30;;;;;;4936951;28;20114;-82
2022/06/14 03:32:13;;;;;;;3.60;1.45;;;17.00;69.70;;;;;;4935254;28;20173;-83
2022/06/14 03:34:49;;;;;;;0.10;0.10;;;17.00;70.00;;;;;;4934573;28;20035;-84
2022/06/14 03:37:15;;;;;;;0.20;0.20;;;17.00;69.70;;;;;;4929935;28;20043;-83
2022/06/14 03:39:46;;;;;;;0.17;0.17;;;17.00;69.80;;;;;;4936134;28;20187;-85
2022/06/14 03:42:12;;;;;;;0.20;0.20;;;16.90;70.50;;;;;;4930809;28;20035;-85
2022/06/14 03:44:39;;;;;;;0.03;0.03;;;16.80;70.80;;;;;;4981561;28;20147;-82
2022/06/14 03:47:22;;;;;;;;;;;16.80;70.80;;;;;;5030776;28;20037;-81
2022/06/14 03:50:08;;;;;;;0.43;0.43;;;16.80;70.80;;;;;;5030578;28;19924;-82
2022/06/14 03:52:37;;;;;;;0.10;0.10;;;16.70;71.50;;;;;;5028955;28;20794;-83
2022/06/14 03:55:27;;;;;;;0.10;0.10;;;16.50;72.30;;;;;;5034448;28;20032;-84
2022/06/14 03:58:10;;;;;;;3.83;1.05;;;16.60;71.70;;;;;;5036626;28;20067;-85
2022/06/14 04:00:57;;;;;;;0.30;0.30;;;16.50;72.30;;;;;;5033690;28;20033;-83
2022/06/14 04:03:51;;;;;;;3.00;1.58;;;16.60;71.60;;;;;;5035511;28;21996;-83
2022/06/14 04:06:48;;;;;;;0.22;0.22;;;16.60;71.60;;;;;;5029956;28;20040;-82
2022/06/14 04:09:26;;;;;;;1.35;0.95;;;16.60;72.00;;;;;;5030952;28;20035;-81
2022/06/14 04:11:58;;;;;;;0.20;0.20;;;16.50;71.80;;;;;;5031304;28;20091;-82
2022/06/14 04:14:39;;;;;;;0.10;0.10;;;16.50;72.00;;;;;;5008971;28;20575;-83
2022/06/14 04:17:23;;;;;;;0.20;0.20;;;16.50;71.90;;;;;;5034358;28;20097;-82
2022/06/14 04:20:16;;;;;;;0.10;0.10;;;16.60;72.10;;;;;;5034794;28;20043;-82
2022/06/14 04:22:54;;;;;;;0.17;0.17;;;17.20;70.50;;;;;;5014597;28;20033;-83
2022/06/14 04:26:04;;;;;;;0.17;0.17;;;17.40;69.50;;;;;;5033308;28;20029;-85
2022/06/14 04:28:54;;;;;;;0.52;0.52;;;17.80;68.90;;;;;;4967181;28;20039;-86
2022/06/14 04:31:30;;;;;;;0.25;0.22;;;18.10;67.80;;;;;;4951915;28;20043;-85
2022/06/14 04:34:18;;;;;;;0.00;0.00;;;18.50;66.60;;;;;;4958290;28;20049;-85
2022/06/14 04:36:55;;;;;;;0.13;0.13;;;18.70;65.90;;;;;;4972443;28;20038;-83
2022/06/14 04:39:27;;;;;;;0.13;0.13;;;19.00;65.50;;;;;;4973884;28;20190;-85
2022/06/14 04:42:17;;;;;;;0.00;0.00;;;19.20;64.90;;;;;;4961729;28;20074;-84
2022/06/14 04:44:44;;;;;;;0.10;0.10;;;19.50;63.50;;;;;;4962728;28;20136;-83
2022/06/14 04:47:48;;;;;;;0.30;0.30;;;19.70;63.40;;;;;;4964845;28;20030;-81
2022/06/14 04:50:35;;;;;;;0.08;0.08;;;20.00;62.00;;;;;;4900061;29;20052;-81
2022/06/14 04:53:13;;;;;;;0.00;0.00;;;20.20;62.40;;;;;;4911000;29;20043;-82
2022/06/14 04:55:59;;;;;;;0.00;0.00;;;20.50;61.50;;;;;;4906476;29;20040;-80
2022/06/14 04:58:49;;;;;;;0.38;0.38;;;20.60;61.00;;;;;;4905903;29;20149;-82
2022/06/14 05:01:19;;;;;;;0.10;0.10;;;20.70;61.10;;;;;;4905454;29;20121;-85
2022/06/14 05:04:02;;;;;;;0.20;0.20;;;20.90;60.40;;;;;;4925268;29;20098;-89
2022/06/14 05:06:48;;;;;;;0.03;0.03;;;20.00;62.90;;;;;;4973083;28;20031;-91
2022/06/14 05:09:22;;;;;;;0.10;0.10;;;20.10;63.10;;;;;;4964353;28;20573;-88
2022/06/14 05:12:04;;;;;;;0.10;0.10;;;20.30;62.60;;;;;;4963903;28;20070;-87
2022/06/14 05:14:40;;;;;;;0.20;0.10;;;20.50;63.00;;;;;;4958642;28;20042;-80
2022/06/14 05:17:22;;;;;;;0.00;0.00;;;20.60;62.40;;;;;;4966228;28;20561;-82
2022/06/14 05:20:18;;;;;;;0.10;0.10;;;21.70;59.60;;;;;;4962456;28;20058;-84
2022/06/14 05:23:07;;;;;;;0.00;0.00;;;22.20;57.30;;;;;;4963135;28;20062;-83
2022/06/14 05:26:07;;;;;;;0.10;0.10;;;22.40;57.10;;;;;;4987325;28;20069;-84
2022/06/14 05:29:32;;;;;;;0.25;0.25;;;22.90;56.90;;;;;;4938406;28;20043;-84
2022/06/14 05:32:06;;;;;;;0.00;0.00;;;23.00;56.30;;;;;;4831668;29;20048;-84
2022/06/14 05:34:59;;;;;;;3.83;0.40;;;23.10;56.40;;;;;;4831886;29;20441;-82
2022/06/14 05:37:48;;;;;;;0.00;0.00;;;23.50;56.00;;;;;;4831571;29;20042;-86
2022/06/14 05:40:32;;;;;;;0.63;0.63;;;23.70;54.80;;;;;;4832595;29;20094;-85
2022/06/14 05:43:05;;;;;;;0.00;0.00;;;23.90;55.00;;;;;;4831297;29;20041;-84
2022/06/14 05:45:34;;;;;;;0.25;0.20;;;24.30;53.60;;;;;;4832297;29;20053;-86
2022/06/14 05:48:06;;;;;;;0.05;0.05;;;24.40;53.20;;;;;;4832616;29;20042;-86
2022/06/14 05:50:38;;;;;;;0.10;0.10;;;24.60;53.60;;;;;;4831719;29;20060;-85
2022/06/14 05:53:19;;;;;;;0.00;0.00;;;24.70;52.30;;;;;;4831749;29;20050;-86
2022/06/14 05:55:55;;;;;;;0.00;0.00;;;24.80;52.70;;;;;;4828968;29;20426;-85
2022/06/14 05:58:34;;;;;;;0.20;0.10;;;25.20;51.90;;;;;;4831020;29;20560;-84
2022/06/14 06:01:06;;;;;;;0.00;0.00;;;25.10;52.80;;;;;;4828425;29;20067;-85
2022/06/14 06:03:41;;;;;;;0.10;0.10;;;25.40;52.00;;;;;;4877341;29;20112;-85
2022/06/14 06:06:24;;;;;;;0.00;0.00;;;25.80;50.40;;;;;;4935257;28;20050;-86
2022/06/14 06:09:07;;;;;;;0.00;0.00;;;25.40;51.40;;;;;;4984748;28;20128;-83
2022/06/14 06:11:43;;;;;;;0.32;0.30;;;25.90;50.80;;;;;;5041507;28;20106;-86
2022/06/14 06:14:19;;;;;;;0.17;0.17;;;25.70;50.70;;;;;;5025783;28;20029;-85
2022/06/14 06:17:17;;;;;;;0.22;0.13;;;26.10;50.20;;;;;;5024917;28;20030;-83
2022/06/14 06:20:01;;;;;;;0.15;0.10;;;26.70;50.80;;;;;;5038108;28;20041;-83
2022/06/14 06:22:43;;;;;;;2.65;1.17;;;27.00;49.70;;;;;;5041971;28;20036;-82
2022/06/14 06:25:21;;;;;;;0.10;0.03;;;26.40;49.40;;;;;;5041679;28;20769;-83
2022/06/14 06:27:53;;;;;;;0.20;0.20;;;26.70;49.10;;;;;;5043683;28;20463;-84
2022/06/14 06:30:35;;;;;;;0.10;0.10;;;27.50;48.10;;;;;;5041609;28;20128;-86
2022/06/14 06:33:01;;;;;;;0.00;0.00;;;27.50;48.00;;;;;;5041787;28;20032;-84
2022/06/14 06:35:46;;;;;;;0.22;0.22;;;27.60;48.70;;;;;;5042177;28;20082;-81
2022/06/14 06:38:28;;;;;;;0.15;0.15;;;28.00;47.50;;;;;;5030982;28;20037;-82
2022/06/14 06:43:52;;;;;;;0.00;0.00;;;28.50;47.20;;;;;;5038904;28;20071;-84
2022/06/14 06:46:22;;;;;;;0.10;0.00;;;29.50;46.00;;;;;;5042580;28;20028;-85
2022/06/14 06:48:56;;;;;;;0.00;0.00;;;29.70;46.00;;;;;;5040725;28;20045;-83
2022/06/14 06:51:27;;;;;;;0.00;0.00;;;29.80;45.40;;;;;;5042546;28;20215;-83
2022/06/14 06:54:02;;;;;;;0.00;0.00;;;29.80;45.40;;;;;;5041523;28;20051;-84
2022/06/14 06:56:40;;;;;;;0.00;0.00;;;29.50;45.70;;;;;;5043651;28;20024;-84
2022/06/14 06:59:24;;;;;;;0.00;0.00;;;30.20;45.60;;;;;;5021850;28;20048;-83
2022/06/14 07:01:53;;;;;;;0.10;0.10;;;30.50;44.80;;;;;;5040526;28;20079;-83
2022/06/14 07:07:28;;;;;;;0.00;0.00;;;30.70;44.00;;;;;;5040742;28;20024;-83
2022/06/14 07:10:00;;;;;;;0.03;0.03;;;31.20;44.40;;;;;;5043458;28;20763;-83
2022/06/14 07:12:42;;;;;;;0.13;0.13;;;31.30;44.10;;;;;;5039834;28;20024;-85
2022/06/14 07:15:33;;;;;;;0.08;0.08;;;31.60;44.20;;;;;;5039334;28;20028;-83
2022/06/14 07:18:14;;;;;;;0.30;0.30;;;31.50;44.00;;;;;;5040186;28;20040;-83
2022/06/14 07:20:56;;;;;;;0.17;0.17;;;31.30;44.50;;;;;;5040323;28;20029;-82
2022/06/14 07:23:27;;;;;;;0.13;0.10;;;31.60;44.40;;;;;;5031729;28;20029;-83
2022/06/14 07:26:15;;;;;;;0.17;0.17;;;31.70;44.10;;;;;;5042179;28;20125;-83
2022/06/14 07:28:53;;;;;;;0.17;0.10;;;31.80;43.10;;;;;;5034812;28;20497;-83
2022/06/14 07:31:31;;;;;;;0.10;0.00;;;32.60;42.60;;;;;;5042483;28;20044;-83
2022/06/14 07:33:58;;;;;;;0.13;0.00;;;32.50;43.90;;;;;;5043193;28;20029;-83
2022/06/14 07:36:46;;;;;;;0.22;0.20;;;32.40;44.00;;;;;;5039340;28;20879;-81
2022/06/14 07:39:37;;;;;;;0.00;0.00;;;31.80;44.80;;;;;;5023878;28;20083;-80
2022/06/14 07:42:17;;;;;;;0.40;0.25;;;31.40;45.00;;;;;;5039902;28;20099;-81
2022/06/14 07:45:17;;;;;;;0.10;0.10;;;31.70;45.00;;;;;;5039682;28;20099;-81
2022/06/14 07:48:02;;;;;;;0.00;0.00;;;31.90;45.10;;;;;;5033889;28;20040;-81
2022/06/14 07:50:49;;;;;;;0.10;0.10;;;32.20;45.20;;;;;;5031091;28;20055;-80
2022/06/14 07:53:20;;;;;;;0.25;0.25;;;32.70;44.60;;;;;;5029659;28;20035;-81
2022/06/14 07:55:50;;;;;;;0.08;0.08;;;33.00;43.50;;;;;;5039615;28;20064;-81
2022/06/14 07:58:32;;;;;;;0.17;0.17;;;32.90;44.50;;;;;;5024677;28;20102;-81
2022/06/14 08:01:09;;;;;;;0.30;0.30;;;33.00;43.80;;;;;;5043321;28;20071;-81
2022/06/14 08:03:47;;;;;;;0.00;0.00;;;33.70;42.80;;;;;;5040701;28;20021;-81
2022/06/14 08:06:38;;;;;;;0.20;0.05;;;33.80;41.60;;;;;;5039785;28;20479;-81
2022/06/14 08:09:07;;;;;;;0.20;0.20;;;34.80;41.80;;;;;;5040532;28;20424;-80
2022/06/14 08:11:54;;;;;;;4.50;0.55;;;35.30;39.80;;;;;;5040046;28;20033;-81
2022/06/14 08:14:34;;;;;;;0.10;0.10;;;35.80;40.50;;;;;;5030322;28;20032;-81
2022/06/14 08:17:01;;;;;;;0.15;0.15;;;35.90;42.70;;;;;;5039416;28;20032;-81
2022/06/14 08:19:44;;;;;;;0.20;0.20;;;35.80;40.90;;;;;;5040360;28;20071;-81
2022/06/14 08:22:16;;;;;;;0.10;0.10;;;36.80;40.10;;;;;;5022175;28;20036;-81
2022/06/14 08:24:47;;;;;;;0.68;0.35;;;36.20;38.80;;;;;;5046557;28;20036;-81
2022/06/14 08:27:31;;;;;;;0.00;0.00;;;37.10;40.50;;;;;;5045383;28;20075;-81
2022/06/14 08:30:15;;;;;;;0.57;0.30;;;37.00;40.10;;;;;;5042908;28;20033;-80
2022/06/14 08:32:56;;;;;;;0.00;0.00;;;36.40;40.60;;;;;;5044109;28;20095;-81
2022/06/14 08:35:35;;;;;;;0.73;0.47;;;37.50;40.30;;;;;;5034187;28;20028;-82
2022/06/14 08:38:33;;;;;;;0.85;0.47;;;37.10;40.60;;;;;;5043053;28;20028;-81
2022/06/14 08:41:37;;;;;;;0.00;0.00;;;37.70;40.10;;;;;;5014958;28;20512;-81
2022/06/14 08:44:22;;;;;;;0.60;0.47;;;37.80;39.40;;;;;;5041811;28;20036;-81
2022/06/14 08:46:55;;;;;;;0.00;0.00;;;38.50;40.30;;;;;;5040117;28;20049;-81
2022/06/14 08:49:21;;;;;;;0.10;0.10;;;39.10;37.90;;;;;;5044588;28;20040;-85
2022/06/14 08:52:08;;;;;;;0.00;0.00;;;39.00;37.70;;;;;;5045040;28;20110;-85
2022/06/14 08:54:52;;;;;;;0.03;0.03;;;40.00;37.40;;;;;;5043221;28;20447;-85
2022/06/14 08:58:00;;;;;;;0.00;0.00;;;39.50;37.20;;;;;;5042360;28;20021;-86
2022/06/14 09:00:56;;;;;;;1.48;0.35;;;40.00;37.80;;;;;;5042488;28;20082;-86
2022/06/14 09:03:24;;;;;;;0.10;0.10;;;40.40;36.90;;;;;;5042426;28;20795;-86
2022/06/14 09:06:11;;;;;;;0.63;0.38;;;40.70;36.40;;;;;;5044081;28;20423;-85
2022/06/14 09:08:55;;;;;;;0.00;0.00;;;41.10;36.20;;;;;;5042476;28;20033;-85
2022/06/14 09:11:36;;;;;;;0.28;0.22;;;41.70;35.60;;;;;;5033471;28;20489;-86
2022/06/14 09:14:25;;;;;;;0.13;0.05;;;42.40;35.50;;;;;;5042421;28;20599;-85
2022/06/14 09:17:15;;;;;;;0.03;0.03;;;43.00;36.70;;;;;;4939052;29;20055;-86
2022/06/14 09:20:04;;;;;;;0.08;0.00;;;42.80;37.10;;;;;;4937989;29;20116;-85
2022/06/14 09:22:38;;;;;;;0.00;0.00;;;42.70;37.10;;;;;;4942536;29;20796;-85
2022/06/14 09:25:38;;;;;;;0.10;0.10;;;42.50;37.10;;;;;;4941089;29;20043;-86
2022/06/14 09:28:15;;;;;;;0.00;0.00;;;42.30;38.00;;;;;;4941288;29;20051;-86
2022/06/14 09:31:11;;;;;;;0.43;0.43;;;42.40;35.40;;;;;;4944903;29;20143;-86
2022/06/14 09:33:55;;;;;;;0.10;0.10;;;42.20;36.50;;;;;;4943110;28;20035;-86
2022/06/14 09:36:45;;;;;;;0.30;0.30;;;42.10;35.90;;;;;;4942096;29;20038;-86
2022/06/14 09:39:45;;;;;;;0.00;0.00;;;41.70;37.30;;;;;;4941023;29;20585;-87
2022/06/14 09:42:59;;;;;;;0.10;0.10;;;42.70;36.30;;;;;;4941452;29;20036;-86
2022/06/14 09:45:41;;;;;;;0.10;0.10;;;41.60;36.20;;;;;;4872886;29;20599;-88
2022/06/14 09:48:24;;;;;;;0.20;0.20;;;43.10;35.70;;;;;;4874213;29;20107;-82
2022/06/14 09:51:02;;;;;;;0.20;0.20;;;43.40;35.00;;;;;;4873845;29;20055;-81
2022/06/14 09:53:45;;;;;;;0.68;0.22;;;42.40;32.80;;;;;;4898796;29;20585;-81
2022/06/14 09:56:20;;;;;;;0.10;0.08;;;42.30;35.60;;;;;;4933379;29;20054;-81
2022/06/14 09:58:48;;;;;;;;;;;42.20;37.60;;;;;;4954631;28;20050;-81
2022/06/14 10:01:19;;;;;;;0.00;0.00;;;41.40;34.30;;;;;;4954269;28;19914;-81
2022/06/14 10:03:54;;;;;;;0.00;0.00;;;41.70;34.50;;;;;;4934232;28;20023;-81
2022/06/14 10:06:52;;;;;;;3.00;0.87;;;41.80;36.70;;;;;;4949121;28;20173;-82
2022/06/14 10:09:45;;;;;;;0.13;0.13;;;42.30;34.70;;;;;;4873027;29;20383;-80
2022/06/14 10:12:30;;;;;;;0.43;0.43;;;42.40;34.90;;;;;;4818906;29;20625;-81
2022/06/14 10:15:21;;;;;;;0.15;0.15;;;43.20;34.90;;;;;;4819190;29;20129;-81
2022/06/14 10:17:59;;;;;;;0.25;0.08;;;43.00;34.90;;;;;;4819079;29;20057;-80
2022/06/14 10:20:55;;;;;;;0.85;0.52;;;43.20;34.70;;;;;;4821419;29;20054;-80
2022/06/14 10:23:23;;;;;;;0.25;0.25;;;41.50;35.30;;;;;;4888473;29;20044;-81
2022/06/14 10:29:30;;;;;;;0.10;0.10;;;40.90;35.10;;;;;;4862896;29;20063;-81
2022/06/14 10:32:22;;;;;;;0.00;0.00;;;40.10;37.10;;;;;;4853534;29;20037;-80
2022/06/14 10:35:13;;;;;;;0.00;0.00;;;41.50;36.30;;;;;;4852136;29;20517;-81
2022/06/14 10:38:00;;;;;;;0.00;0.00;;;41.40;35.90;;;;;;4850288;29;20191;-81
2022/06/14 10:40:40;;;;;;;0.47;0.30;;;41.00;37.00;;;;;;4850644;29;20049;-81
2022/06/14 10:43:26;;;;;;;0.20;0.15;;;38.00;37.30;;;;;;4852560;29;20133;-80
2022/06/14 10:45:57;;;;;;;0.73;0.43;;;36.00;41.50;;;;;;4870129;29;20618;-81
2022/06/14 10:48:47;;;;;;;0.08;0.08;;;35.60;42.30;;;;;;4935010;28;20039;-87
2022/06/14 10:51:37;;;;;;;0.32;0.28;;;34.70;44.80;;;;;;4980212;28;20054;-85
2022/06/14 10:54:20;;;;;;;0.10;0.10;;;34.80;45.10;;;;;;4978787;28;20054;-86
2022/06/14 10:57:04;;;;;;;0.10;0.10;;;34.70;44.00;;;;;;4979922;28;20077;-86
2022/06/14 11:00:08;;;;;;;0.00;0.00;;;34.60;46.30;;;;;;4970112;28;20082;-86
2022/06/14 11:02:45;;;;;;;2.83;1.35;;;34.90;45.30;;;;;;4977862;28;20038;-85
2022/06/14 11:05:34;;;;;;;0.20;0.20;;;34.10;43.90;;;;;;4986428;28;20042;-86
2022/06/14 11:08:29;;;;;;;0.40;0.40;;;34.30;45.40;;;;;;4923841;29;20031;-86
2022/06/14 11:11:25;;;;;;;0.10;0.10;;;33.80;46.00;;;;;;4937709;29;22392;-86
2022/06/14 11:14:02;;;;;;;0.10;0.10;;;34.00;44.20;;;;;;4937006;29;20052;-86
2022/06/14 11:17:00;;;;;;;0.25;0.20;;;34.10;48.50;;;;;;4941551;29;20047;-87
2022/06/14 11:19:50;;;;;;;0.30;0.20;;;34.00;47.90;;;;;;4940868;29;20051;-86
2022/06/14 11:22:36;;;;;;;1.10;0.45;;;34.00;48.30;;;;;;4939620;28;20466;-86
2022/06/14 11:25:10;;;;;;;0.47;0.20;;;33.90;48.90;;;;;;4942981;29;20098;-87
2022/06/14 11:28:00;;;;;;;0.10;0.10;;;33.60;50.70;;;;;;4937397;28;20032;-86
2022/06/14 11:30:50;;;;;;;0.85;0.52;;;33.30;47.50;;;;;;4939276;29;20053;-86
2022/06/14 11:33:22;;;;;;;0.13;0.13;;;33.40;51.90;;;;;;4938753;28;20156;-87
2022/06/14 11:36:06;;;;;;;0.22;0.20;;;32.90;48.40;;;;;;4939615;29;20078;-86
2022/06/14 11:38:53;;;;;;;0.20;0.20;;;32.80;46.60;;;;;;4939382;29;20051;-86
2022/06/14 11:41:23;;;;;;;1.55;0.88;;;32.70;48.50;;;;;;4929759;29;20427;-87
2022/06/14 11:44:27;;;;;;;0.22;0.22;;;32.40;46.70;;;;;;4941250;29;20043;-86
2022/06/14 11:46:59;;;;;;;0.17;0.17;;;32.40;50.30;;;;;;5037314;28;20040;-86
2022/06/14 11:49:40;;;;;;;0.00;0.00;;;32.30;48.60;;;;;;5022839;28;20056;-87
2022/06/14 11:52:36;;;;;;;0.47;0.47;;;31.90;49.10;;;;;;5039607;28;20060;-86
2022/06/14 11:55:21;;;;;;;0.10;0.10;;;31.90;48.20;;;;;;5043397;28;20028;-87
2022/06/14 11:57:49;;;;;;;0.60;0.22;;;32.20;50.50;;;;;;5040825;28;20049;-86
2022/06/14 12:00:29;;;;;;;0.32;0.32;;;32.00;49.50;;;;;;5023883;28;20118;-87
2022/06/14 12:03:28;;;;;;;0.60;0.38;;;31.60;49.90;;;;;;5039147;28;20389;-86
2022/06/14 12:05:58;;;;;;;1.33;0.50;;;31.50;50.20;;;;;;4997006;28;20050;-86
2022/06/14 12:08:48;;;;;;;0.32;0.32;;;31.30;48.30;;;;;;4996899;28;20084;-86
2022/06/14 12:11:34;;;;;;;0.08;0.08;;;31.70;49.60;;;;;;4997632;28;20038;-86
2022/06/14 12:14:20;;;;;;;0.22;0.20;;;31.70;48.00;;;;;;4997736;28;20022;-86
2022/06/14 12:17:19;;;;;;;0.10;0.10;;;31.40;49.10;;;;;;4993540;28;20078;-86
2022/06/14 12:19:53;;;;;;;0.50;0.50;;;31.30;46.20;;;;;;4989038;28;20046;-86
2022/06/14 12:22:26;;;;;;;0.47;0.47;;;31.30;44.70;;;;;;4999252;28;20045;-86
2022/06/14 12:27:42;;;;;;;0.22;0.22;;;31.40;46.10;;;;;;5000880;28;21063;-86
2022/06/14 12:30:12;;;;;;;0.15;0.15;;;31.70;47.90;;;;;;4980716;28;20034;-86
2022/06/14 12:33:13;;;;;;;0.43;0.30;;;31.80;46.70;;;;;;4996455;28;20034;-86
2022/06/14 12:35:49;;;;;;;0.10;0.10;;;31.80;46.90;;;;;;4986441;28;20065;-86
2022/06/14 12:38:22;;;;;;;0.68;0.30;;;31.40;48.00;;;;;;4987111;28;20118;-86
2022/06/14 12:40:54;;;;;;;0.10;0.10;;;31.30;50.40;;;;;;4980401;28;20046;-87
2022/06/14 12:43:28;;;;;;;0.73;0.20;;;31.40;49.50;;;;;;5028193;28;20108;-86
2022/06/14 12:46:02;;;;;;;5.80;0.43;;;31.40;50.10;;;;;;5042551;28;20964;-86
2022/06/14 12:48:38;;;;;;;2.30;0.38;;;31.30;49.10;;;;;;5039057;28;20487;-86
2022/06/14 12:51:18;;;;;;;0.00;0.00;;;31.20;48.60;;;;;;5039462;28;20044;-87
2022/06/14 12:53:56;;;;;;;0.00;0.00;;;31.10;48.60;;;;;;5041484;28;20037;-86
2022/06/14 12:56:38;;;;;;;0.13;0.13;;;31.20;52.00;;;;;;5030246;28;20029;-86
2022/06/14 12:59:14;;;;;;;1.02;0.65;;;31.30;53.70;;;;;;5038852;28;20043;-86
2022/06/14 13:02:01;;;;;;;0.10;0.10;;;31.10;51.20;;;;;;5034467;28;20115;-86
2022/06/14 13:04:35;;;;;;;1.27;0.40;;;31.20;50.50;;;;;;5022233;28;20032;-86
2022/06/14 13:07:13;;;;;;;10.85;0.85;;;31.20;49.60;;;;;;5038262;28;20033;-86
2022/06/14 13:09:58;;;;;;;0.00;0.00;;;31.10;50.30;;;;;;5044888;28;20056;-85
2022/06/14 13:12:23;;;;;;;0.20;0.20;;;31.00;49.70;;;;;;5044038;28;20589;-87
2022/06/14 13:15:11;;;;;;;0.55;0.20;;;31.00;51.50;;;;;;5040512;28;20068;-88
2022/06/14 13:18:12;;;;;;;1.55;0.43;;;30.90;53.90;;;;;;5019255;28;20029;-88
2022/06/14 13:21:11;;;;;;;1.85;0.70;;;30.90;50.90;;;;;;5037213;28;20125;-87
2022/06/14 13:23:52;;;;;;;2.20;0.05;;;30.80;51.20;;;;;;5036425;28;20075;-86
2022/06/14 13:26:49;;;;;;;0.15;0.15;;;30.80;49.40;;;;;;5044133;28;20063;-86
2022/06/14 13:29:14;;;;;;;2.28;1.02;;;30.80;50.90;;;;;;5041935;28;20039;-86
2022/06/14 13:31:52;;;;;;;0.15;0.15;;;30.90;50.80;;;;;;5042179;28;20037;-86
2022/06/14 13:34:23;;;;;;;0.30;0.30;;;30.90;50.40;;;;;;5044482;28;20108;-86
2022/06/14 13:36:57;;;;;;;0.50;0.50;;;30.90;51.50;;;;;;5043734;28;20037;-86
2022/06/14 13:40:05;;;;;;;0.00;0.00;;;30.80;51.00;;;;;;5041610;28;20041;-85
2022/06/14 13:42:37;;;;;;;0.10;0.10;;;30.80;49.30;;;;;;5023767;28;20588;-86
2022/06/14 13:45:40;;;;;;;0.10;0.05;;;30.80;47.80;;;;;;5022825;28;20040;-86
2022/06/14 13:48:15;;;;;;;0.10;0.10;;;30.80;50.20;;;;;;5041757;28;20131;-86
2022/06/14 13:50:54;;;;;;;0.20;0.20;;;30.80;48.60;;;;;;5042103;28;20053;-86
2022/06/14 13:53:35;;;;;;;0.10;0.10;;;30.90;48.30;;;;;;5032457;28;20091;-86
2022/06/14 13:56:07;;;;;;;0.45;0.30;;;30.80;45.70;;;;;;5026740;28;20025;-86
2022/06/14 13:59:14;;;;;;;0.90;0.50;;;30.90;48.50;;;;;;5042021;28;20045;-86
2022/06/14 14:02:13;;;;;;;3.15;0.50;;;30.70;47.20;;;;;;5037313;28;20116;-86
2022/06/14 14:04:39;;;;;;;0.45;0.32;;;30.60;43.20;;;;;;5036910;28;20036;-85
2022/06/14 14:07:15;;;;;;;0.70;0.30;;;30.70;44.80;;;;;;5045609;28;20036;-86
2022/06/14 14:09:56;;;;;;;0.45;0.45;;;30.80;47.30;;;;;;5044351;28;20053;-85
2022/06/14 14:12:40;;;;;;;0.30;0.30;;;30.80;47.70;;;;;;5041548;28;20055;-86
2022/06/14 14:15:11;;;;;;;0.00;0.00;;;30.70;47.70;;;;;;5041661;28;20060;-86